THY5106 LTFM-OEMA
Flight info
| Callsign | THY5106 |
|---|---|
| Flight time | 2h 55m |
| Altitude | 33000 |
| Route | RATVU1D/35L RATVU UT35 AYT UM855 TOMBI M855 RASDA A16 CVO L315 HGD M872 BOVET |
| Aircraft | A21N/M-SDE2E3FGHIRWXY/LB1 |
Departure
| Time | 2026-04-16 08:21 |
|---|---|
| Airport | İstanbul Airport (LTFM) |
Arrival
| Time | 2026-04-16 11:16 |
|---|---|
| Airport | Prince Mohammad Bin Abdulaziz Airport (OEMA) |
| Time | Latitude | Longitude | Altitude | Speed | Heading |
|---|---|---|---|---|---|
| 2026-04-16 07:12 | 41.26422 | 28.74119 | 339 ft | 0 kts | 101° |
| 2026-04-16 08:07 | 41.26424 | 28.74103 | 339 ft | 4 kts | 101° |
| 2026-04-16 08:07 | 41.26426 | 28.74095 | 339 ft | 4 kts | 101° |
| 2026-04-16 08:08 | 41.26431 | 28.74060 | 335 ft | 4 kts | 103° |
| 2026-04-16 08:08 | 41.26431 | 28.74028 | 339 ft | 4 kts | 65° |
| 2026-04-16 08:08 | 41.26419 | 28.73997 | 334 ft | 4 kts | 63° |
| 2026-04-16 08:08 | 41.26413 | 28.73979 | 339 ft | 1 kts | 71° |
| 2026-04-16 08:13 | 41.26416 | 28.73992 | 339 ft | 3 kts | 73° |
| 2026-04-16 08:13 | 41.26440 | 28.74022 | 339 ft | 7 kts | 22° |
| 2026-04-16 08:14 | 41.26496 | 28.74026 | 336 ft | 10 kts | 359° |
| 2026-04-16 08:14 | 41.26567 | 28.74024 | 338 ft | 11 kts | 359° |
| 2026-04-16 08:14 | 41.26647 | 28.74022 | 336 ft | 12 kts | 359° |
| 2026-04-16 08:14 | 41.26735 | 28.74020 | 339 ft | 13 kts | 359° |
| 2026-04-16 08:15 | 41.26831 | 28.74017 | 339 ft | 14 kts | 359° |
| 2026-04-16 08:15 | 41.26915 | 28.74015 | 338 ft | 9 kts | 359° |
| 2026-04-16 08:15 | 41.26981 | 28.74014 | 335 ft | 10 kts | 359° |
| 2026-04-16 08:15 | 41.27047 | 28.73979 | 338 ft | 12 kts | 299° |
| 2026-04-16 08:16 | 41.27052 | 28.73868 | 337 ft | 13 kts | 268° |
| 2026-04-16 08:16 | 41.27050 | 28.73746 | 339 ft | 14 kts | 269° |
| 2026-04-16 08:16 | 41.27048 | 28.73614 | 339 ft | 15 kts | 269° |
| 2026-04-16 08:16 | 41.27046 | 28.73472 | 338 ft | 16 kts | 269° |
| 2026-04-16 08:17 | 41.27044 | 28.73323 | 339 ft | 17 kts | 269° |
| 2026-04-16 08:17 | 41.27042 | 28.73165 | 339 ft | 17 kts | 269° |
| 2026-04-16 08:17 | 41.27041 | 28.73030 | 336 ft | 10 kts | 269° |
| 2026-04-16 08:17 | 41.26981 | 28.72986 | 337 ft | 12 kts | 182° |
| 2026-04-16 08:18 | 41.26896 | 28.72989 | 337 ft | 13 kts | 179° |
| 2026-04-16 08:19 | 41.26752 | 28.72514 | 337 ft | 6 kts | 354° |
| 2026-04-16 08:20 | 41.26770 | 28.72513 | 339 ft | 0 kts | 0° |
| 2026-04-16 08:20 | 41.26869 | 28.72513 | 336 ft | 45 kts | 359° |
| 2026-04-16 08:20 | 41.27422 | 28.72502 | 339 ft | 113 kts | 360° |
| 2026-04-16 08:20 | 41.28417 | 28.72484 | 336 ft | 169 kts | 360° |
| 2026-04-16 08:21 | 41.29582 | 28.72432 | 982 ft | 164 kts | 0° |
| 2026-04-16 08:21 | 41.30730 | 28.72418 | 1518 ft | 170 kts | 3° |
| 2026-04-16 08:21 | 41.31985 | 28.72467 | 1859 ft | 190 kts | 4° |
| 2026-04-16 08:21 | 41.32890 | 28.72492 | 2185 ft | 201 kts | 2° |
| 2026-04-16 08:22 | 41.34340 | 28.72495 | 2630 ft | 219 kts | 360° |
| 2026-04-16 08:22 | 41.35924 | 28.72107 | 2931 ft | 246 kts | 339° |
| 2026-04-16 08:22 | 41.37360 | 28.70746 | 3466 ft | 262 kts | 311° |
| 2026-04-16 08:22 | 41.38193 | 28.68576 | 4207 ft | 269 kts | 283° |
| 2026-04-16 08:23 | 41.38312 | 28.66080 | 5029 ft | 272 kts | 269° |
| 2026-04-16 08:23 | 41.38225 | 28.63548 | 5857 ft | 275 kts | 268° |
| 2026-04-16 08:23 | 41.38135 | 28.60981 | 6677 ft | 278 kts | 266° |
| 2026-04-16 08:23 | 41.37726 | 28.58476 | 7432 ft | 281 kts | 246° |
| 2026-04-16 08:24 | 41.36589 | 28.56356 | 8163 ft | 285 kts | 221° |
| 2026-04-16 08:24 | 41.34852 | 28.55065 | 8849 ft | 291 kts | 196° |
| 2026-04-16 08:24 | 41.32835 | 28.54806 | 9517 ft | 295 kts | 179° |
| 2026-04-16 08:24 | 41.30774 | 28.54939 | 10184 ft | 300 kts | 178° |
| 2026-04-16 08:25 | 41.28633 | 28.55083 | 10524 ft | 316 kts | 179° |
| 2026-04-16 08:25 | 41.26375 | 28.55347 | 10789 ft | 335 kts | 171° |
| 2026-04-16 08:25 | 41.24129 | 28.56437 | 11029 ft | 356 kts | 151° |
| 2026-04-16 08:25 | 41.22145 | 28.58540 | 11279 ft | 375 kts | 137° |
| 2026-04-16 08:26 | 41.20263 | 28.61043 | 11522 ft | 391 kts | 136° |
| 2026-04-16 08:26 | 41.18314 | 28.63651 | 11747 ft | 405 kts | 136° |
| 2026-04-16 08:26 | 41.16280 | 28.66314 | 12059 ft | 414 kts | 137° |
| 2026-04-16 08:26 | 41.14206 | 28.68991 | 12542 ft | 418 kts | 137° |
| 2026-04-16 08:27 | 41.12232 | 28.71842 | 13011 ft | 423 kts | 128° |
| 2026-04-16 08:27 | 41.10567 | 28.75095 | 13512 ft | 426 kts | 124° |
| 2026-04-16 08:27 | 41.08956 | 28.78410 | 14006 ft | 429 kts | 124° |
| 2026-04-16 08:27 | 41.07335 | 28.81746 | 14451 ft | 432 kts | 124° |
| 2026-04-16 08:28 | 41.05640 | 28.85047 | 14887 ft | 435 kts | 129° |
| 2026-04-16 08:28 | 41.03542 | 28.87930 | 15381 ft | 435 kts | 142° |
| 2026-04-16 08:28 | 41.01010 | 28.90109 | 15888 ft | 434 kts | 156° |
| 2026-04-16 08:28 | 40.98177 | 28.91459 | 16371 ft | 433 kts | 169° |
| 2026-04-16 08:29 | 40.95193 | 28.91907 | 16832 ft | 432 kts | 183° |
| 2026-04-16 08:29 | 40.92195 | 28.91617 | 17292 ft | 433 kts | 188° |
| 2026-04-16 08:29 | 40.89226 | 28.91186 | 17750 ft | 436 kts | 189° |
| 2026-04-16 08:29 | 40.86177 | 28.91012 | 18206 ft | 442 kts | 181° |
| 2026-04-16 08:30 | 40.83093 | 28.91213 | 18632 ft | 446 kts | 179° |
| 2026-04-16 08:30 | 40.79988 | 28.91465 | 19052 ft | 448 kts | 179° |
| 2026-04-16 08:30 | 40.76857 | 28.91725 | 19469 ft | 451 kts | 179° |
| 2026-04-16 08:30 | 40.73716 | 28.91982 | 19888 ft | 454 kts | 179° |
| 2026-04-16 08:31 | 40.70558 | 28.92238 | 20268 ft | 456 kts | 179° |
| 2026-04-16 08:31 | 40.67377 | 28.92494 | 20645 ft | 459 kts | 179° |
| 2026-04-16 08:31 | 40.64180 | 28.92750 | 21035 ft | 461 kts | 179° |
| 2026-04-16 08:31 | 40.60971 | 28.93007 | 21449 ft | 464 kts | 179° |
| 2026-04-16 08:32 | 40.57741 | 28.93394 | 21856 ft | 469 kts | 174° |
| 2026-04-16 08:32 | 40.54562 | 28.94473 | 22230 ft | 476 kts | 162° |
| 2026-04-16 08:32 | 40.51577 | 28.96422 | 22598 ft | 483 kts | 151° |
| 2026-04-16 08:32 | 40.48747 | 28.98840 | 22961 ft | 487 kts | 149° |
| 2026-04-16 08:33 | 40.45923 | 29.01314 | 23315 ft | 489 kts | 149° |
| 2026-04-16 08:33 | 40.43072 | 29.03786 | 23653 ft | 492 kts | 149° |
| 2026-04-16 08:33 | 40.40201 | 29.06246 | 24025 ft | 493 kts | 149° |
| 2026-04-16 08:33 | 40.37326 | 29.08706 | 24455 ft | 492 kts | 149° |
| 2026-04-16 08:34 | 40.34455 | 29.11148 | 24883 ft | 492 kts | 149° |
| 2026-04-16 08:34 | 40.31631 | 29.13552 | 25316 ft | 490 kts | 149° |
| 2026-04-16 08:34 | 40.28767 | 29.15983 | 25718 ft | 490 kts | 150° |
| 2026-04-16 08:34 | 40.25893 | 29.18399 | 26143 ft | 489 kts | 150° |
| 2026-04-16 08:35 | 40.23032 | 29.20799 | 26548 ft | 489 kts | 150° |
| 2026-04-16 08:35 | 40.20168 | 29.23194 | 26936 ft | 488 kts | 151° |
| 2026-04-16 08:35 | 40.17174 | 29.25234 | 27329 ft | 483 kts | 161° |
| 2026-04-16 08:35 | 40.14042 | 29.26770 | 27730 ft | 480 kts | 163° |
| 2026-04-16 08:36 | 40.10892 | 29.28258 | 28079 ft | 480 kts | 163° |
| 2026-04-16 08:36 | 40.07753 | 29.29736 | 28438 ft | 479 kts | 163° |
| 2026-04-16 08:36 | 40.04617 | 29.31218 | 28786 ft | 479 kts | 163° |
| 2026-04-16 08:36 | 40.01481 | 29.32704 | 29105 ft | 478 kts | 163° |
| 2026-04-16 08:37 | 39.98393 | 29.34167 | 29445 ft | 477 kts | 163° |
| 2026-04-16 08:37 | 39.95281 | 29.35642 | 29861 ft | 474 kts | 163° |
| 2026-04-16 08:37 | 39.92187 | 29.37107 | 30210 ft | 473 kts | 163° |
| 2026-04-16 08:37 | 39.89122 | 29.38675 | 30498 ft | 474 kts | 160° |
| 2026-04-16 08:38 | 39.86076 | 29.40345 | 30775 ft | 474 kts | 160° |
| 2026-04-16 08:38 | 39.83035 | 29.42022 | 31034 ft | 474 kts | 160° |
| 2026-04-16 08:38 | 39.79997 | 29.43696 | 31285 ft | 474 kts | 160° |
| 2026-04-16 08:38 | 39.76963 | 29.45364 | 31549 ft | 473 kts | 160° |
| 2026-04-16 08:39 | 39.73929 | 29.47029 | 31800 ft | 473 kts | 160° |
| 2026-04-16 08:39 | 39.70892 | 29.48693 | 32021 ft | 473 kts | 160° |
| 2026-04-16 08:39 | 39.67859 | 29.50354 | 32239 ft | 473 kts | 160° |
| 2026-04-16 08:39 | 39.64825 | 29.52010 | 32455 ft | 473 kts | 160° |
| 2026-04-16 08:40 | 39.61772 | 29.53570 | 32674 ft | 472 kts | 162° |
| 2026-04-16 08:40 | 39.58699 | 29.55105 | 32863 ft | 472 kts | 162° |
| 2026-04-16 08:40 | 39.55638 | 29.56634 | 33071 ft | 472 kts | 161° |
| 2026-04-16 08:40 | 39.52657 | 29.58124 | 33164 ft | 471 kts | 162° |
| 2026-04-16 08:41 | 39.46540 | 29.61183 | 33129 ft | 470 kts | 162° |
| 2026-04-16 08:41 | 39.40433 | 29.64225 | 33113 ft | 470 kts | 162° |
| 2026-04-16 08:42 | 39.34331 | 29.67256 | 33103 ft | 469 kts | 162° |
| 2026-04-16 08:42 | 39.28235 | 29.70278 | 33103 ft | 469 kts | 162° |
| 2026-04-16 08:43 | 39.22131 | 29.73299 | 33100 ft | 469 kts | 162° |
| 2026-04-16 08:43 | 39.16036 | 29.76311 | 33100 ft | 469 kts | 162° |
| 2026-04-16 08:44 | 39.09936 | 29.79320 | 33099 ft | 468 kts | 161° |
| 2026-04-16 08:44 | 39.03879 | 29.82301 | 33103 ft | 468 kts | 161° |
| 2026-04-16 08:45 | 38.97790 | 29.85292 | 33101 ft | 468 kts | 161° |
| 2026-04-16 08:45 | 38.91710 | 29.88270 | 33092 ft | 467 kts | 161° |
| 2026-04-16 08:46 | 38.85633 | 29.91214 | 33089 ft | 466 kts | 162° |
| 2026-04-16 08:46 | 38.79562 | 29.94088 | 33090 ft | 465 kts | 162° |
| 2026-04-16 08:47 | 38.73498 | 29.96965 | 33090 ft | 465 kts | 162° |
| 2026-04-16 08:47 | 38.67429 | 29.99840 | 33090 ft | 464 kts | 162° |
| 2026-04-16 08:48 | 38.61359 | 30.02711 | 33089 ft | 465 kts | 162° |
| 2026-04-16 08:48 | 38.55293 | 30.05576 | 33088 ft | 465 kts | 162° |
| 2026-04-16 08:49 | 38.49231 | 30.08435 | 33091 ft | 464 kts | 162° |
| 2026-04-16 08:49 | 38.43170 | 30.11291 | 33089 ft | 464 kts | 162° |
| 2026-04-16 08:50 | 38.37120 | 30.14133 | 33089 ft | 463 kts | 162° |
| 2026-04-16 08:50 | 38.31052 | 30.16966 | 33090 ft | 463 kts | 162° |
| 2026-04-16 08:51 | 38.24996 | 30.19739 | 33091 ft | 462 kts | 162° |
| 2026-04-16 08:51 | 38.18944 | 30.22514 | 33090 ft | 462 kts | 162° |
| 2026-04-16 08:52 | 38.12936 | 30.25271 | 33100 ft | 462 kts | 162° |
| 2026-04-16 08:52 | 38.06884 | 30.28045 | 33102 ft | 462 kts | 162° |
| 2026-04-16 08:53 | 38.00825 | 30.30821 | 33106 ft | 462 kts | 162° |
| 2026-04-16 08:53 | 37.94914 | 30.33505 | 33106 ft | 462 kts | 162° |
| 2026-04-16 08:54 | 37.88956 | 30.36574 | 33108 ft | 463 kts | 157° |
| 2026-04-16 08:54 | 37.83030 | 30.39750 | 33105 ft | 460 kts | 165° |
| 2026-04-16 08:55 | 37.76903 | 30.42087 | 33111 ft | 462 kts | 159° |
| 2026-04-16 08:55 | 37.71009 | 30.45191 | 33111 ft | 461 kts | 160° |
| 2026-04-16 08:56 | 37.64988 | 30.48006 | 33102 ft | 461 kts | 162° |
| 2026-04-16 08:56 | 37.58936 | 30.50717 | 33097 ft | 461 kts | 162° |
| 2026-04-16 08:57 | 37.52890 | 30.53419 | 33084 ft | 460 kts | 162° |
| 2026-04-16 08:57 | 37.46853 | 30.56116 | 33069 ft | 460 kts | 162° |
| 2026-04-16 08:58 | 37.40815 | 30.58810 | 33055 ft | 460 kts | 162° |
| 2026-04-16 08:58 | 37.34744 | 30.61276 | 33043 ft | 458 kts | 168° |
| 2026-04-16 08:59 | 37.28585 | 30.63352 | 33028 ft | 458 kts | 164° |
| 2026-04-16 08:59 | 37.22716 | 30.65843 | 33005 ft | 459 kts | 162° |
| 2026-04-16 09:00 | 37.16698 | 30.68519 | 32997 ft | 458 kts | 162° |
| 2026-04-16 09:00 | 37.10675 | 30.71187 | 32981 ft | 458 kts | 162° |
| 2026-04-16 09:01 | 37.01650 | 30.75171 | 32965 ft | 458 kts | 162° |
| 2026-04-16 09:02 | 36.95650 | 30.77843 | 32973 ft | 458 kts | 161° |
| 2026-04-16 09:02 | 36.89485 | 30.79599 | 32959 ft | 454 kts | 178° |
| 2026-04-16 09:03 | 36.83213 | 30.79806 | 32963 ft | 453 kts | 180° |
| 2026-04-16 09:03 | 36.77928 | 30.79954 | 32962 ft | 453 kts | 180° |
| 2026-04-16 09:04 | 36.71626 | 30.80164 | 32965 ft | 453 kts | 179° |
| 2026-04-16 09:04 | 36.65318 | 30.80385 | 32965 ft | 453 kts | 179° |
| 2026-04-16 09:05 | 36.59046 | 30.80600 | 32969 ft | 453 kts | 179° |
| 2026-04-16 09:05 | 36.52749 | 30.80819 | 32975 ft | 453 kts | 179° |
| 2026-04-16 09:06 | 36.46453 | 30.81033 | 32970 ft | 452 kts | 179° |
| 2026-04-16 09:06 | 36.40160 | 30.81251 | 32971 ft | 452 kts | 179° |
| 2026-04-16 09:07 | 36.33866 | 30.81459 | 32969 ft | 452 kts | 179° |
| 2026-04-16 09:07 | 36.27580 | 30.81667 | 32974 ft | 452 kts | 179° |
| 2026-04-16 09:08 | 36.21285 | 30.81880 | 32955 ft | 452 kts | 179° |
| 2026-04-16 09:08 | 36.14990 | 30.82089 | 32949 ft | 453 kts | 179° |
| 2026-04-16 09:09 | 36.08729 | 30.82296 | 32940 ft | 453 kts | 179° |
| 2026-04-16 09:09 | 36.02433 | 30.82548 | 32941 ft | 453 kts | 178° |
| 2026-04-16 09:10 | 35.96139 | 30.82931 | 32938 ft | 452 kts | 178° |
| 2026-04-16 09:10 | 35.89844 | 30.83313 | 32938 ft | 452 kts | 178° |
| 2026-04-16 09:11 | 35.83565 | 30.83691 | 32931 ft | 452 kts | 178° |
| 2026-04-16 09:11 | 35.77271 | 30.84072 | 32930 ft | 452 kts | 178° |
| 2026-04-16 09:12 | 35.70987 | 30.84444 | 32930 ft | 452 kts | 178° |
| 2026-04-16 09:12 | 35.64704 | 30.84824 | 32932 ft | 449 kts | 179° |
| 2026-04-16 09:13 | 35.58479 | 30.85112 | 32920 ft | 448 kts | 181° |
| 2026-04-16 09:13 | 35.52255 | 30.85320 | 32916 ft | 447 kts | 181° |
| 2026-04-16 09:14 | 35.46032 | 30.85528 | 32918 ft | 448 kts | 181° |
| 2026-04-16 09:14 | 35.39831 | 30.85737 | 32918 ft | 448 kts | 181° |
| 2026-04-16 09:15 | 35.33610 | 30.85944 | 32913 ft | 447 kts | 181° |
| 2026-04-16 09:15 | 35.27382 | 30.86152 | 32904 ft | 447 kts | 181° |
| 2026-04-16 09:16 | 35.21147 | 30.86361 | 32905 ft | 447 kts | 181° |
| 2026-04-16 09:16 | 35.15077 | 30.86566 | 32900 ft | 447 kts | 181° |
| 2026-04-16 09:17 | 35.08850 | 30.86774 | 32902 ft | 447 kts | 181° |
| 2026-04-16 09:17 | 35.02660 | 30.86977 | 32888 ft | 447 kts | 181° |
| 2026-04-16 09:18 | 34.96437 | 30.87184 | 32888 ft | 448 kts | 181° |
| 2026-04-16 09:18 | 34.90202 | 30.87391 | 32893 ft | 448 kts | 181° |
| 2026-04-16 09:19 | 34.83983 | 30.87597 | 32887 ft | 447 kts | 181° |
| 2026-04-16 09:19 | 34.77754 | 30.87803 | 32882 ft | 447 kts | 182° |
| 2026-04-16 09:20 | 34.71527 | 30.88011 | 32881 ft | 447 kts | 182° |
| 2026-04-16 09:20 | 34.65292 | 30.88215 | 32863 ft | 448 kts | 182° |
| 2026-04-16 09:21 | 34.59104 | 30.88436 | 32861 ft | 448 kts | 181° |
| 2026-04-16 09:21 | 34.52876 | 30.88759 | 32853 ft | 448 kts | 181° |
| 2026-04-16 09:22 | 34.46642 | 30.89073 | 32849 ft | 448 kts | 181° |
| 2026-04-16 09:22 | 34.40554 | 30.89371 | 32850 ft | 448 kts | 181° |
| 2026-04-16 09:23 | 34.34315 | 30.89677 | 32847 ft | 449 kts | 181° |
| 2026-04-16 09:23 | 34.28084 | 30.89982 | 32852 ft | 448 kts | 181° |
| 2026-04-16 09:24 | 34.21841 | 30.90294 | 32852 ft | 448 kts | 181° |
| 2026-04-16 09:24 | 34.15614 | 30.90646 | 32842 ft | 448 kts | 181° |
| 2026-04-16 09:25 | 34.09422 | 30.90992 | 32836 ft | 448 kts | 181° |
| 2026-04-16 09:25 | 34.03187 | 30.91338 | 32837 ft | 448 kts | 181° |
| 2026-04-16 09:26 | 33.96941 | 30.91684 | 32842 ft | 448 kts | 182° |
| 2026-04-16 09:26 | 33.90702 | 30.91973 | 32838 ft | 448 kts | 183° |
| 2026-04-16 09:27 | 33.84458 | 30.92194 | 32833 ft | 448 kts | 183° |
| 2026-04-16 09:27 | 33.78217 | 30.92426 | 32831 ft | 449 kts | 183° |
| 2026-04-16 09:28 | 33.72110 | 30.92658 | 32829 ft | 449 kts | 183° |
| 2026-04-16 09:28 | 33.65916 | 30.92892 | 32830 ft | 448 kts | 183° |
| 2026-04-16 09:29 | 33.59663 | 30.93128 | 32830 ft | 449 kts | 183° |
| 2026-04-16 09:29 | 33.53419 | 30.93359 | 32823 ft | 448 kts | 183° |
| 2026-04-16 09:30 | 33.47185 | 30.93592 | 32819 ft | 447 kts | 183° |
| 2026-04-16 09:30 | 33.40956 | 30.93823 | 32821 ft | 448 kts | 183° |
| 2026-04-16 09:31 | 33.34735 | 30.94057 | 32820 ft | 447 kts | 183° |
| 2026-04-16 09:31 | 33.28556 | 30.94287 | 32812 ft | 447 kts | 183° |
| 2026-04-16 09:32 | 33.22320 | 30.94520 | 32811 ft | 447 kts | 184° |
| 2026-04-16 09:32 | 33.16103 | 30.94751 | 32810 ft | 447 kts | 184° |
| 2026-04-16 09:33 | 33.09877 | 30.95011 | 32809 ft | 449 kts | 182° |
| 2026-04-16 09:33 | 33.03635 | 30.95679 | 32802 ft | 451 kts | 180° |
| 2026-04-16 09:34 | 32.97406 | 30.96961 | 32800 ft | 454 kts | 175° |
| 2026-04-16 09:34 | 32.91163 | 30.97968 | 32801 ft | 451 kts | 180° |
| 2026-04-16 09:35 | 32.84925 | 30.98683 | 32797 ft | 449 kts | 183° |
| 2026-04-16 09:35 | 32.78748 | 30.98719 | 32793 ft | 447 kts | 185° |
| 2026-04-16 09:36 | 32.72521 | 30.99184 | 32791 ft | 449 kts | 181° |
| 2026-04-16 09:36 | 32.66284 | 30.99869 | 32791 ft | 450 kts | 181° |
| 2026-04-16 09:37 | 32.60035 | 31.00569 | 32790 ft | 450 kts | 181° |
| 2026-04-16 09:37 | 32.53801 | 31.01264 | 32787 ft | 450 kts | 181° |
| 2026-04-16 09:38 | 32.47557 | 31.01954 | 32781 ft | 450 kts | 181° |
| 2026-04-16 09:38 | 32.41316 | 31.02645 | 32780 ft | 450 kts | 181° |
| 2026-04-16 09:39 | 32.35108 | 31.03332 | 32780 ft | 451 kts | 181° |
| 2026-04-16 09:39 | 32.28999 | 31.04003 | 32781 ft | 451 kts | 181° |
| 2026-04-16 09:40 | 32.22754 | 31.04693 | 32781 ft | 451 kts | 181° |
| 2026-04-16 09:40 | 32.16500 | 31.05383 | 32773 ft | 451 kts | 181° |
| 2026-04-16 09:41 | 32.10256 | 31.06068 | 32770 ft | 451 kts | 181° |
| 2026-04-16 09:41 | 32.04004 | 31.06754 | 32770 ft | 450 kts | 181° |
| 2026-04-16 09:42 | 31.97757 | 31.07430 | 32770 ft | 451 kts | 182° |
| 2026-04-16 09:42 | 31.91522 | 31.08100 | 32770 ft | 450 kts | 182° |
| 2026-04-16 09:43 | 31.85296 | 31.08549 | 32770 ft | 444 kts | 188° |
| 2026-04-16 09:43 | 31.79136 | 31.08664 | 32770 ft | 448 kts | 184° |
| 2026-04-16 09:44 | 31.72903 | 31.09233 | 32769 ft | 450 kts | 182° |
| 2026-04-16 09:44 | 31.66664 | 31.09906 | 32770 ft | 450 kts | 182° |
| 2026-04-16 09:45 | 31.60424 | 31.10577 | 32770 ft | 450 kts | 182° |
| 2026-04-16 09:45 | 31.54183 | 31.11246 | 32769 ft | 450 kts | 182° |
| 2026-04-16 09:46 | 31.49004 | 31.12398 | 32771 ft | 460 kts | 173° |
| 2026-04-16 09:46 | 31.42787 | 31.14061 | 32769 ft | 456 kts | 177° |
| 2026-04-16 09:47 | 31.36550 | 31.15309 | 32770 ft | 454 kts | 179° |
| 2026-04-16 09:47 | 31.30303 | 31.16483 | 32763 ft | 454 kts | 179° |
| 2026-04-16 09:48 | 31.24063 | 31.17650 | 32772 ft | 454 kts | 179° |
| 2026-04-16 09:48 | 31.17812 | 31.18817 | 32770 ft | 454 kts | 179° |
| 2026-04-16 09:49 | 31.11603 | 31.19973 | 32761 ft | 454 kts | 179° |
| 2026-04-16 09:49 | 31.05354 | 31.21135 | 32761 ft | 454 kts | 179° |
| 2026-04-16 09:50 | 30.99104 | 31.22294 | 32761 ft | 454 kts | 179° |
| 2026-04-16 09:50 | 30.92856 | 31.23454 | 32760 ft | 454 kts | 179° |
| 2026-04-16 09:51 | 30.86611 | 31.24612 | 32761 ft | 454 kts | 179° |
| 2026-04-16 09:51 | 30.80384 | 31.25763 | 32761 ft | 453 kts | 179° |
| 2026-04-16 09:52 | 30.74150 | 31.26916 | 32760 ft | 453 kts | 179° |
| 2026-04-16 09:52 | 30.67929 | 31.28064 | 32761 ft | 453 kts | 179° |
| 2026-04-16 09:53 | 30.61690 | 31.29213 | 32760 ft | 453 kts | 179° |
| 2026-04-16 09:53 | 30.55469 | 31.30357 | 32760 ft | 453 kts | 179° |
| 2026-04-16 09:54 | 30.49239 | 31.31503 | 32759 ft | 453 kts | 179° |
| 2026-04-16 09:54 | 30.43009 | 31.32651 | 32760 ft | 453 kts | 179° |
| 2026-04-16 09:55 | 30.36774 | 31.33800 | 32761 ft | 453 kts | 179° |
| 2026-04-16 09:55 | 30.30526 | 31.34945 | 32760 ft | 454 kts | 179° |
| 2026-04-16 09:56 | 30.24280 | 31.36273 | 32761 ft | 461 kts | 174° |
| 2026-04-16 09:56 | 30.18046 | 31.37758 | 32760 ft | 454 kts | 179° |
| 2026-04-16 09:57 | 30.11837 | 31.38639 | 32758 ft | 455 kts | 178° |
| 2026-04-16 09:57 | 30.08746 | 31.39685 | 32757 ft | 471 kts | 165° |
| 2026-04-16 09:57 | 30.05830 | 31.41517 | 32765 ft | 482 kts | 156° |
| 2026-04-16 09:58 | 30.00164 | 31.45681 | 32761 ft | 484 kts | 153° |
| 2026-04-16 09:58 | 29.94941 | 31.50719 | 32760 ft | 491 kts | 147° |
| 2026-04-16 09:59 | 29.89608 | 31.55584 | 32767 ft | 487 kts | 150° |
| 2026-04-16 09:59 | 29.84152 | 31.60232 | 32770 ft | 487 kts | 151° |
| 2026-04-16 10:00 | 29.78695 | 31.64859 | 32775 ft | 487 kts | 151° |
| 2026-04-16 10:00 | 29.73246 | 31.69485 | 32780 ft | 487 kts | 151° |
| 2026-04-16 10:01 | 29.65077 | 31.76414 | 32781 ft | 487 kts | 151° |
| 2026-04-16 10:01 | 29.59622 | 31.81036 | 32780 ft | 487 kts | 151° |
| 2026-04-16 10:02 | 29.54202 | 31.85616 | 32782 ft | 487 kts | 151° |
| 2026-04-16 10:02 | 29.48747 | 31.90217 | 32776 ft | 486 kts | 151° |
| 2026-04-16 10:03 | 29.43292 | 31.94814 | 32778 ft | 487 kts | 151° |
| 2026-04-16 10:03 | 29.37837 | 31.99406 | 32777 ft | 486 kts | 151° |
| 2026-04-16 10:04 | 29.32361 | 32.04005 | 32784 ft | 488 kts | 151° |
| 2026-04-16 10:04 | 29.26880 | 32.08604 | 32780 ft | 488 kts | 151° |
| 2026-04-16 10:05 | 29.21388 | 32.13204 | 32782 ft | 488 kts | 151° |
| 2026-04-16 10:05 | 29.15892 | 32.17800 | 32782 ft | 489 kts | 151° |
| 2026-04-16 10:06 | 29.10400 | 32.22390 | 32779 ft | 489 kts | 151° |
| 2026-04-16 10:06 | 29.04907 | 32.26976 | 32780 ft | 489 kts | 151° |
| 2026-04-16 10:07 | 28.99411 | 32.31555 | 32791 ft | 490 kts | 151° |
| 2026-04-16 10:07 | 28.93900 | 32.36143 | 32784 ft | 490 kts | 151° |
| 2026-04-16 10:08 | 28.88393 | 32.40722 | 32783 ft | 490 kts | 151° |
| 2026-04-16 10:08 | 28.82922 | 32.45263 | 32782 ft | 489 kts | 151° |
| 2026-04-16 10:09 | 28.77533 | 32.49733 | 32767 ft | 489 kts | 151° |
| 2026-04-16 10:09 | 28.72028 | 32.54294 | 32776 ft | 489 kts | 151° |
| 2026-04-16 10:10 | 28.66523 | 32.58845 | 32779 ft | 489 kts | 151° |
| 2026-04-16 10:10 | 28.61003 | 32.63402 | 32777 ft | 489 kts | 151° |
| 2026-04-16 10:11 | 28.55487 | 32.67951 | 32779 ft | 489 kts | 151° |
| 2026-04-16 10:11 | 28.49971 | 32.72491 | 32780 ft | 489 kts | 151° |
| 2026-04-16 10:12 | 28.44454 | 32.77024 | 32771 ft | 489 kts | 151° |
| 2026-04-16 10:12 | 28.38940 | 32.81554 | 32770 ft | 489 kts | 151° |
| 2026-04-16 10:13 | 28.33445 | 32.86059 | 32770 ft | 489 kts | 151° |
| 2026-04-16 10:13 | 28.27922 | 32.90586 | 32770 ft | 490 kts | 151° |
| 2026-04-16 10:14 | 28.22384 | 32.95120 | 32764 ft | 490 kts | 151° |
| 2026-04-16 10:14 | 28.16842 | 32.99647 | 32761 ft | 491 kts | 151° |
| 2026-04-16 10:15 | 28.11303 | 33.04167 | 32760 ft | 490 kts | 151° |
| 2026-04-16 10:15 | 28.05760 | 33.08683 | 32760 ft | 490 kts | 151° |
| 2026-04-16 10:16 | 28.00249 | 33.13169 | 32760 ft | 490 kts | 151° |
| 2026-04-16 10:16 | 27.94708 | 33.17671 | 32760 ft | 490 kts | 151° |
| 2026-04-16 10:17 | 27.89161 | 33.22177 | 32762 ft | 491 kts | 151° |
| 2026-04-16 10:17 | 27.83606 | 33.26686 | 32759 ft | 491 kts | 151° |
| 2026-04-16 10:18 | 27.78043 | 33.31190 | 32760 ft | 491 kts | 151° |
| 2026-04-16 10:18 | 27.72489 | 33.35680 | 32759 ft | 491 kts | 151° |
| 2026-04-16 10:19 | 27.66933 | 33.40171 | 32761 ft | 491 kts | 151° |
| 2026-04-16 10:19 | 27.61372 | 33.44658 | 32762 ft | 491 kts | 151° |
| 2026-04-16 10:20 | 27.55817 | 33.49138 | 32758 ft | 491 kts | 151° |
| 2026-04-16 10:20 | 27.50289 | 33.53587 | 32757 ft | 491 kts | 151° |
| 2026-04-16 10:21 | 27.44723 | 33.58056 | 32759 ft | 490 kts | 151° |
| 2026-04-16 10:21 | 27.39149 | 33.62528 | 32760 ft | 491 kts | 151° |
| 2026-04-16 10:22 | 27.33581 | 33.66990 | 32760 ft | 491 kts | 151° |
| 2026-04-16 10:22 | 27.28011 | 33.71448 | 32760 ft | 491 kts | 151° |
| 2026-04-16 10:23 | 27.22471 | 33.75875 | 32760 ft | 491 kts | 151° |
| 2026-04-16 10:23 | 27.17455 | 33.81245 | 32756 ft | 509 kts | 130° |
| 2026-04-16 10:24 | 27.15752 | 33.84763 | 32762 ft | 518 kts | 116° |
| 2026-04-16 10:24 | 27.14457 | 33.88544 | 32767 ft | 519 kts | 113° |
| 2026-04-16 10:24 | 27.11900 | 33.96121 | 32761 ft | 518 kts | 114° |
| 2026-04-16 10:25 | 27.09238 | 34.03644 | 32760 ft | 518 kts | 115° |
| 2026-04-16 10:25 | 27.06556 | 34.11137 | 32760 ft | 518 kts | 115° |
| 2026-04-16 10:26 | 27.03874 | 34.18627 | 32760 ft | 517 kts | 115° |
| 2026-04-16 10:26 | 27.01192 | 34.26114 | 32760 ft | 516 kts | 115° |
| 2026-04-16 10:27 | 26.98527 | 34.33535 | 32761 ft | 516 kts | 115° |
| 2026-04-16 10:27 | 26.95841 | 34.41003 | 32760 ft | 517 kts | 115° |
| 2026-04-16 10:28 | 26.93154 | 34.48466 | 32760 ft | 516 kts | 115° |
| 2026-04-16 10:28 | 26.90897 | 34.54715 | 32760 ft | 516 kts | 115° |
| 2026-04-16 10:29 | 26.88199 | 34.62165 | 32768 ft | 516 kts | 115° |
| 2026-04-16 10:29 | 26.85577 | 34.69406 | 32769 ft | 516 kts | 115° |
| 2026-04-16 10:30 | 26.82861 | 34.76891 | 32769 ft | 516 kts | 115° |
| 2026-04-16 10:30 | 26.80170 | 34.84281 | 32770 ft | 516 kts | 115° |
| 2026-04-16 10:31 | 26.77461 | 34.91714 | 32771 ft | 515 kts | 115° |
| 2026-04-16 10:31 | 26.74754 | 34.99128 | 32770 ft | 514 kts | 115° |
| 2026-04-16 10:32 | 26.72044 | 35.06543 | 32770 ft | 515 kts | 115° |
| 2026-04-16 10:32 | 26.69321 | 35.13955 | 32770 ft | 515 kts | 115° |
| 2026-04-16 10:33 | 26.66598 | 35.21356 | 32770 ft | 515 kts | 115° |
| 2026-04-16 10:33 | 26.63879 | 35.28750 | 32770 ft | 514 kts | 115° |
| 2026-04-16 10:34 | 26.61158 | 35.36150 | 32784 ft | 514 kts | 115° |
| 2026-04-16 10:34 | 26.58425 | 35.43538 | 32791 ft | 513 kts | 115° |
| 2026-04-16 10:35 | 26.55710 | 35.50851 | 32790 ft | 513 kts | 115° |
| 2026-04-16 10:35 | 26.52909 | 35.58179 | 32790 ft | 512 kts | 116° |
| 2026-04-16 10:36 | 26.50101 | 35.65510 | 32791 ft | 512 kts | 116° |
| 2026-04-16 10:36 | 26.47297 | 35.72838 | 32791 ft | 514 kts | 116° |
| 2026-04-16 10:37 | 26.44486 | 35.80172 | 32790 ft | 513 kts | 116° |
| 2026-04-16 10:37 | 26.41675 | 35.87490 | 32790 ft | 513 kts | 116° |
| 2026-04-16 10:38 | 26.38862 | 35.94801 | 32790 ft | 513 kts | 116° |
| 2026-04-16 10:38 | 26.36062 | 36.02067 | 32791 ft | 512 kts | 116° |
| 2026-04-16 10:39 | 26.33248 | 36.09358 | 32790 ft | 511 kts | 116° |
| 2026-04-16 10:39 | 26.30431 | 36.16635 | 32790 ft | 511 kts | 116° |
| 2026-04-16 10:40 | 26.27607 | 36.23917 | 32790 ft | 511 kts | 116° |
| 2026-04-16 10:40 | 26.24780 | 36.31193 | 32790 ft | 511 kts | 116° |
| 2026-04-16 10:41 | 26.21952 | 36.38469 | 32791 ft | 511 kts | 116° |
| 2026-04-16 10:41 | 26.19123 | 36.45730 | 32790 ft | 511 kts | 116° |
| 2026-04-16 10:42 | 26.15973 | 36.52808 | 32792 ft | 509 kts | 122° |
| 2026-04-16 10:42 | 26.12588 | 36.59666 | 32790 ft | 509 kts | 122° |
| 2026-04-16 10:43 | 26.09183 | 36.66563 | 32790 ft | 509 kts | 122° |
| 2026-04-16 10:43 | 26.05775 | 36.73475 | 32790 ft | 509 kts | 122° |
| 2026-04-16 10:44 | 26.02358 | 36.80384 | 32790 ft | 510 kts | 122° |
| 2026-04-16 10:44 | 25.98939 | 36.87287 | 32790 ft | 510 kts | 122° |
| 2026-04-16 10:45 | 25.95513 | 36.94196 | 32789 ft | 511 kts | 122° |
| 2026-04-16 10:45 | 25.92083 | 37.01103 | 32790 ft | 510 kts | 122° |
| 2026-04-16 10:46 | 25.88643 | 37.08015 | 32791 ft | 511 kts | 122° |
| 2026-04-16 10:46 | 25.85205 | 37.14920 | 32790 ft | 511 kts | 122° |
| 2026-04-16 10:47 | 25.81762 | 37.21814 | 32789 ft | 511 kts | 122° |
| 2026-04-16 10:47 | 25.78318 | 37.28721 | 32790 ft | 511 kts | 122° |
| 2026-04-16 10:48 | 25.74885 | 37.35629 | 32791 ft | 511 kts | 122° |
| 2026-04-16 10:48 | 25.71453 | 37.42516 | 32789 ft | 511 kts | 122° |
| 2026-04-16 10:49 | 25.68014 | 37.49409 | 32789 ft | 510 kts | 122° |
| 2026-04-16 10:49 | 25.64589 | 37.56261 | 32791 ft | 510 kts | 122° |
| 2026-04-16 10:50 | 25.61137 | 37.63149 | 32789 ft | 511 kts | 122° |
| 2026-04-16 10:50 | 25.57689 | 37.70027 | 32789 ft | 510 kts | 122° |
| 2026-04-16 10:51 | 25.54241 | 37.76896 | 32791 ft | 510 kts | 122° |
| 2026-04-16 10:51 | 25.50788 | 37.83764 | 32789 ft | 510 kts | 122° |
| 2026-04-16 10:52 | 25.47330 | 37.90629 | 32792 ft | 511 kts | 122° |
| 2026-04-16 10:52 | 25.43867 | 37.97494 | 32789 ft | 511 kts | 122° |
| 2026-04-16 10:53 | 25.40405 | 38.04344 | 32792 ft | 510 kts | 122° |
| 2026-04-16 10:53 | 25.36924 | 38.11227 | 32419 ft | 509 kts | 122° |
| 2026-04-16 10:54 | 25.35190 | 38.14651 | 32123 ft | 510 kts | 122° |
| 2026-04-16 10:54 | 25.33478 | 38.18029 | 31858 ft | 510 kts | 122° |
| 2026-04-16 10:54 | 25.31737 | 38.21456 | 31604 ft | 510 kts | 122° |
| 2026-04-16 10:54 | 25.30003 | 38.24871 | 31356 ft | 510 kts | 122° |
| 2026-04-16 10:55 | 25.28264 | 38.28298 | 31106 ft | 510 kts | 122° |
| 2026-04-16 10:55 | 25.26528 | 38.31714 | 30846 ft | 509 kts | 122° |
| 2026-04-16 10:55 | 25.24800 | 38.35115 | 30233 ft | 506 kts | 122° |
| 2026-04-16 10:55 | 25.23075 | 38.38504 | 29400 ft | 505 kts | 122° |
| 2026-04-16 10:56 | 25.21349 | 38.41891 | 28481 ft | 505 kts | 122° |
| 2026-04-16 10:56 | 25.19624 | 38.45274 | 27585 ft | 506 kts | 122° |
| 2026-04-16 10:56 | 25.17897 | 38.48661 | 26673 ft | 507 kts | 122° |
| 2026-04-16 10:56 | 25.16162 | 38.52052 | 25742 ft | 508 kts | 122° |
| 2026-04-16 10:57 | 25.14418 | 38.55458 | 24781 ft | 509 kts | 122° |
| 2026-04-16 10:57 | 25.12680 | 38.58852 | 23886 ft | 508 kts | 122° |
| 2026-04-16 10:57 | 25.10946 | 38.62237 | 23084 ft | 505 kts | 122° |
| 2026-04-16 10:57 | 25.09247 | 38.65555 | 22347 ft | 501 kts | 122° |
| 2026-04-16 10:58 | 25.07538 | 38.68883 | 21817 ft | 503 kts | 122° |
| 2026-04-16 10:58 | 25.05803 | 38.72259 | 21422 ft | 504 kts | 122° |
| 2026-04-16 10:58 | 25.04092 | 38.75592 | 20972 ft | 495 kts | 122° |
| 2026-04-16 10:58 | 25.02409 | 38.78863 | 20362 ft | 487 kts | 122° |
| 2026-04-16 10:59 | 25.00748 | 38.82091 | 19724 ft | 480 kts | 122° |
| 2026-04-16 10:59 | 24.99105 | 38.85282 | 19079 ft | 474 kts | 122° |
| 2026-04-16 10:59 | 24.97485 | 38.88427 | 18446 ft | 468 kts | 122° |
| 2026-04-16 10:59 | 24.95784 | 38.91457 | 17760 ft | 462 kts | 129° |
| 2026-04-16 11:00 | 24.93801 | 38.94222 | 17092 ft | 457 kts | 132° |
| 2026-04-16 11:00 | 24.91796 | 38.96920 | 16485 ft | 453 kts | 132° |
| 2026-04-16 11:00 | 24.89812 | 38.99586 | 15899 ft | 448 kts | 132° |
| 2026-04-16 11:00 | 24.87851 | 39.02226 | 15344 ft | 443 kts | 132° |
| 2026-04-16 11:01 | 24.85901 | 39.04854 | 14772 ft | 442 kts | 132° |
| 2026-04-16 11:01 | 24.83966 | 39.07466 | 14304 ft | 436 kts | 132° |
| 2026-04-16 11:01 | 24.82064 | 39.10031 | 13861 ft | 428 kts | 132° |
| 2026-04-16 11:01 | 24.80195 | 39.12547 | 13416 ft | 421 kts | 132° |
| 2026-04-16 11:02 | 24.78353 | 39.15027 | 12859 ft | 416 kts | 132° |
| 2026-04-16 11:02 | 24.76575 | 39.17486 | 12136 ft | 414 kts | 128° |
| 2026-04-16 11:02 | 24.75289 | 39.20285 | 11705 ft | 406 kts | 110° |
| 2026-04-16 11:02 | 24.74854 | 39.23302 | 11422 ft | 396 kts | 92° |
| 2026-04-16 11:03 | 24.75283 | 39.26236 | 11183 ft | 384 kts | 74° |
| 2026-04-16 11:03 | 24.76147 | 39.28961 | 10984 ft | 369 kts | 73° |
| 2026-04-16 11:03 | 24.77207 | 39.34220 | 10582 ft | 337 kts | 84° |
| 2026-04-16 11:04 | 24.77503 | 39.36717 | 10381 ft | 320 kts | 86° |
| 2026-04-16 11:04 | 24.77749 | 39.39092 | 10149 ft | 306 kts | 87° |
| 2026-04-16 11:04 | 24.77969 | 39.41366 | 9823 ft | 294 kts | 87° |
| 2026-04-16 11:04 | 24.78176 | 39.43607 | 9186 ft | 296 kts | 88° |
| 2026-04-16 11:05 | 24.78381 | 39.45859 | 8728 ft | 295 kts | 88° |
| 2026-04-16 11:05 | 24.78592 | 39.48070 | 8536 ft | 286 kts | 87° |
| 2026-04-16 11:05 | 24.78809 | 39.50211 | 8312 ft | 278 kts | 87° |
| 2026-04-16 11:05 | 24.79031 | 39.52373 | 8069 ft | 286 kts | 87° |
| 2026-04-16 11:06 | 24.79508 | 39.54441 | 7994 ft | 275 kts | 62° |
| 2026-04-16 11:06 | 24.80817 | 39.55886 | 7848 ft | 264 kts | 27° |
| 2026-04-16 11:06 | 24.82578 | 39.56295 | 7719 ft | 260 kts | 350° |
| 2026-04-16 11:06 | 24.84238 | 39.55610 | 7568 ft | 254 kts | 322° |
| 2026-04-16 11:07 | 24.85615 | 39.54418 | 7454 ft | 252 kts | 317° |
| 2026-04-16 11:07 | 24.87154 | 39.53502 | 7324 ft | 257 kts | 347° |
| 2026-04-16 11:07 | 24.88338 | 39.53466 | 7240 ft | 260 kts | 11° |
| 2026-04-16 11:07 | 24.89944 | 39.54325 | 7110 ft | 258 kts | 47° |
| 2026-04-16 11:08 | 24.90835 | 39.55975 | 6990 ft | 249 kts | 83° |
| 2026-04-16 11:08 | 24.90864 | 39.57815 | 6891 ft | 233 kts | 101° |
| 2026-04-16 11:08 | 24.90713 | 39.59594 | 6865 ft | 234 kts | 96° |
| 2026-04-16 11:08 | 24.90784 | 39.61392 | 6771 ft | 234 kts | 93° |
| 2026-04-16 11:09 | 24.90345 | 39.63043 | 6623 ft | 223 kts | 129° |
| 2026-04-16 11:09 | 24.89132 | 39.64001 | 6506 ft | 215 kts | 163° |
| 2026-04-16 11:09 | 24.87687 | 39.64326 | 6407 ft | 206 kts | 174° |
| 2026-04-16 11:09 | 24.86291 | 39.64500 | 6289 ft | 200 kts | 175° |
| 2026-04-16 11:10 | 24.84913 | 39.64682 | 6174 ft | 199 kts | 174° |
| 2026-04-16 11:10 | 24.83543 | 39.64900 | 6131 ft | 199 kts | 173° |
| 2026-04-16 11:10 | 24.82175 | 39.65116 | 6132 ft | 197 kts | 172° |
| 2026-04-16 11:10 | 24.80814 | 39.65387 | 6147 ft | 199 kts | 171° |
| 2026-04-16 11:11 | 24.79456 | 39.65673 | 6149 ft | 198 kts | 171° |
| 2026-04-16 11:11 | 24.78143 | 39.65954 | 6088 ft | 189 kts | 172° |
| 2026-04-16 11:11 | 24.76855 | 39.66228 | 5932 ft | 188 kts | 171° |
| 2026-04-16 11:11 | 24.75566 | 39.66503 | 5709 ft | 187 kts | 171° |
| 2026-04-16 11:12 | 24.74283 | 39.66778 | 5459 ft | 188 kts | 171° |
| 2026-04-16 11:12 | 24.73022 | 39.67048 | 5207 ft | 178 kts | 172° |
| 2026-04-16 11:12 | 24.71844 | 39.67301 | 4988 ft | 168 kts | 171° |
| 2026-04-16 11:12 | 24.70707 | 39.67542 | 4745 ft | 167 kts | 171° |
| 2026-04-16 11:13 | 24.69554 | 39.67790 | 4511 ft | 169 kts | 168° |
| 2026-04-16 11:13 | 24.68437 | 39.68027 | 4291 ft | 151 kts | 167° |
| 2026-04-16 11:13 | 24.67428 | 39.68243 | 4089 ft | 146 kts | 166° |
| 2026-04-16 11:13 | 24.66432 | 39.68456 | 3893 ft | 146 kts | 166° |
| 2026-04-16 11:14 | 24.65429 | 39.68671 | 3703 ft | 147 kts | 166° |
| 2026-04-16 11:14 | 24.64442 | 39.68878 | 3508 ft | 147 kts | 168° |
| 2026-04-16 11:14 | 24.63442 | 39.69083 | 3309 ft | 146 kts | 167° |
| 2026-04-16 11:14 | 24.62444 | 39.69291 | 3093 ft | 146 kts | 168° |
| 2026-04-16 11:15 | 24.61448 | 39.69504 | 2884 ft | 146 kts | 168° |
| 2026-04-16 11:15 | 24.60460 | 39.69719 | 2668 ft | 145 kts | 167° |
| 2026-04-16 11:15 | 24.59474 | 39.69934 | 2448 ft | 143 kts | 167° |
| 2026-04-16 11:15 | 24.58499 | 39.70144 | 2265 ft | 142 kts | 167° |
| 2026-04-16 11:16 | 24.57518 | 39.70357 | 2142 ft | 142 kts | 167° |
| 2026-04-16 11:16 | 24.56636 | 39.70547 | 2118 ft | 113 kts | 167° |
| 2026-04-16 11:16 | 24.56035 | 39.70675 | 2118 ft | 64 kts | 169° |
| 2026-04-16 11:16 | 24.55665 | 39.70749 | 2114 ft | 39 kts | 172° |
| 2026-04-16 11:17 | 24.55438 | 39.70795 | 2115 ft | 22 kts | 163° |
| 2026-04-16 11:17 | 24.55303 | 39.70884 | 2115 ft | 21 kts | 144° |
| 2026-04-16 11:17 | 24.55220 | 39.70959 | 2114 ft | 11 kts | 118° |
| 2026-04-16 11:17 | 24.55211 | 39.70997 | 2113 ft | 0 kts | 89° |
| 2026-04-16 11:18 | 24.55211 | 39.70999 | 2113 ft | 1 kts | 87° |
| 2026-04-16 11:18 | 24.55213 | 39.71016 | 2113 ft | 3 kts | 81° |
| 2026-04-16 11:19 | 24.55219 | 39.71052 | 2112 ft | 6 kts | 80° |
| 2026-04-16 11:19 | 24.55227 | 39.71101 | 2111 ft | 7 kts | 80° |
| 2026-04-16 11:19 | 24.55237 | 39.71162 | 2111 ft | 9 kts | 79° |
| 2026-04-16 11:19 | 24.55234 | 39.71232 | 2110 ft | 9 kts | 81° |
| 2026-04-16 11:20 | 24.55243 | 39.71292 | 2110 ft | 5 kts | 80° |
| 2026-04-16 11:20 | 24.55245 | 39.71303 | 2110 ft | 2 kts | 78° |
| 2026-04-16 11:20 | 24.55249 | 39.71322 | 2110 ft | 3 kts | 77° |
| 2026-04-16 11:20 | 24.55250 | 39.71328 | 2110 ft | 0 kts | 78° |